sensor_id;sensor_type;location;lat;lon;timestamp;temperature;humidity
34985;DHT22;21190;58.750;17.004;2022-11-20T00:01:07;-0.10;99.90
34985;DHT22;21190;58.750;17.004;2022-11-20T00:03:34;0.00;99.90
34985;DHT22;21190;58.750;17.004;2022-11-20T00:06:02;0.00;99.90
34985;DHT22;21190;58.750;17.004;2022-11-20T00:08:29;0.00;99.90
34985;DHT22;21190;58.750;17.004;2022-11-20T00:10:55;0.00;99.90
34985;DHT22;21190;58.750;17.004;2022-11-20T00:13:22;-0.10;99.90
34985;DHT22;21190;58.750;17.004;2022-11-20T00:15:56;0.00;99.90
34985;DHT22;21190;58.750;17.004;2022-11-20T00:18:22;0.00;99.90
34985;DHT22;21190;58.750;17.004;2022-11-20T00:20:49;0.00;99.90
34985;DHT22;21190;58.750;17.004;2022-11-20T00:23:16;0.00;99.90
34985;DHT22;21190;58.750;17.004;2022-11-20T00:25:43;0.10;99.90
34985;DHT22;21190;58.750;17.004;2022-11-20T00:28:10;0.00;99.90
34985;DHT22;21190;58.750;17.004;2022-11-20T00:30:36;0.10;99.90
34985;DHT22;21190;58.750;17.004;2022-11-20T00:33:03;0.10;99.90
34985;DHT22;21190;58.750;17.004;2022-11-20T00:35:30;0.10;99.90
34985;DHT22;21190;58.750;17.004;2022-11-20T00:37:57;0.10;99.90
34985;DHT22;21190;58.750;17.004;2022-11-20T00:40:24;0.10;99.90
34985;DHT22;21190;58.750;17.004;2022-11-20T00:42:51;0.10;99.90
34985;DHT22;21190;58.750;17.004;2022-11-20T00:45:18;0.00;99.90
34985;DHT22;21190;58.750;17.004;2022-11-20T00:47:44;0.00;99.90
34985;DHT22;21190;58.750;17.004;2022-11-20T00:50:11;0.10;99.90
34985;DHT22;21190;58.750;17.004;2022-11-20T00:52:38;0.10;99.90
34985;DHT22;21190;58.750;17.004;2022-11-20T00:55:05;0.10;99.90
34985;DHT22;21190;58.750;17.004;2022-11-20T00:57:32;0.10;99.90
34985;DHT22;21190;58.750;17.004;2022-11-20T00:59:59;0.10;99.90
34985;DHT22;21190;58.750;17.004;2022-11-20T01:02:26;0.10;99.90
34985;DHT22;21190;58.750;17.004;2022-11-20T01:04:52;0.10;99.90
34985;DHT22;21190;58.750;17.004;2022-11-20T01:07:19;0.00;99.90
34985;DHT22;21190;58.750;17.004;2022-11-20T01:09:46;0.00;99.90
34985;DHT22;21190;58.750;17.004;2022-11-20T01:12:13;0.10;99.90
34985;DHT22;21190;58.750;17.004;2022-11-20T01:14:40;0.10;99.90
34985;DHT22;21190;58.750;17.004;2022-11-20T01:17:07;0.20;99.90
34985;DHT22;21190;58.750;17.004;2022-11-20T01:19:34;0.20;99.90
34985;DHT22;21190;58.750;17.004;2022-11-20T01:22:00;0.20;99.90
34985;DHT22;21190;58.750;17.004;2022-11-20T01:24:27;0.30;99.90
34985;DHT22;21190;58.750;17.004;2022-11-20T01:26:54;0.30;99.90
34985;DHT22;21190;58.750;17.004;2022-11-20T01:29:22;0.20;99.90
34985;DHT22;21190;58.750;17.004;2022-11-20T01:31:50;0.30;99.90
34985;DHT22;21190;58.750;17.004;2022-11-20T01:34:18;0.30;99.90
34985;DHT22;21190;58.750;17.004;2022-11-20T01:36:45;0.30;99.90
34985;DHT22;21190;58.750;17.004;2022-11-20T01:39:14;0.30;99.90
34985;DHT22;21190;58.750;17.004;2022-11-20T01:41:42;0.30;99.90
34985;DHT22;21190;58.750;17.004;2022-11-20T01:47:14;0.30;99.90
34985;DHT22;21190;58.750;17.004;2022-11-20T01:49:43;0.30;99.90
34985;DHT22;21190;58.750;17.004;2022-11-20T01:52:15;0.30;99.90
34985;DHT22;21190;58.750;17.004;2022-11-20T01:54:46;0.30;99.90
34985;DHT22;21190;58.750;17.004;2022-11-20T01:57:13;0.40;99.90
34985;DHT22;21190;58.750;17.004;2022-11-20T01:59:44;0.40;99.90
34985;DHT22;21190;58.750;17.004;2022-11-20T02:02:11;0.40;99.90
34985;DHT22;21190;58.750;17.004;2022-11-20T02:04:38;0.40;99.90
34985;DHT22;21190;58.750;17.004;2022-11-20T02:07:05;0.30;99.90
34985;DHT22;21190;58.750;17.004;2022-11-20T02:09:32;0.40;99.90
34985;DHT22;21190;58.750;17.004;2022-11-20T02:11:59;0.40;99.90
34985;DHT22;21190;58.750;17.004;2022-11-20T02:14:26;0.40;99.90
34985;DHT22;21190;58.750;17.004;2022-11-20T02:16:54;0.40;99.90
34985;DHT22;21190;58.750;17.004;2022-11-20T02:19:28;0.40;99.90
34985;DHT22;21190;58.750;17.004;2022-11-20T02:24:29;0.40;99.90
34985;DHT22;21190;58.750;17.004;2022-11-20T02:26:57;0.50;99.90
34985;DHT22;21190;58.750;17.004;2022-11-20T02:31:53;0.40;99.90
34985;DHT22;21190;58.750;17.004;2022-11-20T02:34:21;0.50;99.90
34985;DHT22;21190;58.750;17.004;2022-11-20T02:36:48;0.50;99.90
34985;DHT22;21190;58.750;17.004;2022-11-20T02:39:16;0.50;99.90
34985;DHT22;21190;58.750;17.004;2022-11-20T02:41:43;0.40;99.90
34985;DHT22;21190;58.750;17.004;2022-11-20T02:44:10;0.40;99.90
34985;DHT22;21190;58.750;17.004;2022-11-20T02:46:37;0.40;99.90
34985;DHT22;21190;58.750;17.004;2022-11-20T02:49:04;0.40;99.90
34985;DHT22;21190;58.750;17.004;2022-11-20T02:51:31;0.40;99.90
34985;DHT22;21190;58.750;17.004;2022-11-20T02:53:58;0.40;99.90
34985;DHT22;21190;58.750;17.004;2022-11-20T02:56:25;0.40;99.90
34985;DHT22;21190;58.750;17.004;2022-11-20T02:58:52;0.40;99.90
34985;DHT22;21190;58.750;17.004;2022-11-20T03:01:19;0.40;99.90
34985;DHT22;21190;58.750;17.004;2022-11-20T03:03:46;0.40;99.90
34985;DHT22;21190;58.750;17.004;2022-11-20T03:06:15;0.40;99.90
34985;DHT22;21190;58.750;17.004;2022-11-20T03:08:42;0.40;99.90
34985;DHT22;21190;58.750;17.004;2022-11-20T03:11:09;0.40;99.90
34985;DHT22;21190;58.750;17.004;2022-11-20T03:13:36;0.40;99.90
34985;DHT22;21190;58.750;17.004;2022-11-20T03:16:07;0.30;99.90
34985;DHT22;21190;58.750;17.004;2022-11-20T03:18:34;0.30;99.90
34985;DHT22;21190;58.750;17.004;2022-11-20T03:21:01;0.30;99.90
34985;DHT22;21190;58.750;17.004;2022-11-20T03:23:29;0.40;99.90
34985;DHT22;21190;58.750;17.004;2022-11-20T03:25:55;0.40;99.90
34985;DHT22;21190;58.750;17.004;2022-11-20T03:28:22;0.30;99.90
34985;DHT22;21190;58.750;17.004;2022-11-20T03:30:49;0.30;99.90
34985;DHT22;21190;58.750;17.004;2022-11-20T03:33:16;0.30;99.90
34985;DHT22;21190;58.750;17.004;2022-11-20T03:35:43;0.30;99.90
34985;DHT22;21190;58.750;17.004;2022-11-20T03:38:09;0.40;99.90
34985;DHT22;21190;58.750;17.004;2022-11-20T03:40:36;0.30;99.90
34985;DHT22;21190;58.750;17.004;2022-11-20T03:43:03;0.30;99.90
34985;DHT22;21190;58.750;17.004;2022-11-20T03:45:30;0.30;99.90
34985;DHT22;21190;58.750;17.004;2022-11-20T03:47:57;0.30;99.90
34985;DHT22;21190;58.750;17.004;2022-11-20T03:50:24;0.30;99.90
34985;DHT22;21190;58.750;17.004;2022-11-20T03:52:50;0.30;99.90
34985;DHT22;21190;58.750;17.004;2022-11-20T03:55:17;0.30;99.90
34985;DHT22;21190;58.750;17.004;2022-11-20T03:57:44;0.20;99.90
34985;DHT22;21190;58.750;17.004;2022-11-20T04:00:11;0.20;99.90
34985;DHT22;21190;58.750;17.004;2022-11-20T04:02:38;0.20;99.90
34985;DHT22;21190;58.750;17.004;2022-11-20T04:05:05;0.20;99.90
34985;DHT22;21190;58.750;17.004;2022-11-20T04:07:33;0.20;99.90
34985;DHT22;21190;58.750;17.004;2022-11-20T04:10:00;0.20;99.90
34985;DHT22;21190;58.750;17.004;2022-11-20T04:12:27;0.20;99.90
34985;DHT22;21190;58.750;17.004;2022-11-20T04:14:53;0.10;99.90
34985;DHT22;21190;58.750;17.004;2022-11-20T04:17:20;0.10;99.90
34985;DHT22;21190;58.750;17.004;2022-11-20T04:19:47;0.20;99.90
34985;DHT22;21190;58.750;17.004;2022-11-20T04:22:14;0.20;99.90
34985;DHT22;21190;58.750;17.004;2022-11-20T04:24:41;0.20;99.90
34985;DHT22;21190;58.750;17.004;2022-11-20T04:27:08;0.20;99.90
34985;DHT22;21190;58.750;17.004;2022-11-20T04:29:34;0.20;99.90
34985;DHT22;21190;58.750;17.004;2022-11-20T04:32:01;0.10;99.90
34985;DHT22;21190;58.750;17.004;2022-11-20T04:34:28;0.20;99.90
34985;DHT22;21190;58.750;17.004;2022-11-20T04:36:55;0.20;99.90
34985;DHT22;21190;58.750;17.004;2022-11-20T04:39:22;0.20;99.90
34985;DHT22;21190;58.750;17.004;2022-11-20T04:41:49;0.20;99.90
34985;DHT22;21190;58.750;17.004;2022-11-20T04:44:36;0.20;99.90
34985;DHT22;21190;58.750;17.004;2022-11-20T04:47:03;0.20;99.90
34985;DHT22;21190;58.750;17.004;2022-11-20T04:49:29;0.30;99.90
34985;DHT22;21190;58.750;17.004;2022-11-20T04:51:58;0.20;99.90
34985;DHT22;21190;58.750;17.004;2022-11-20T04:54:24;0.20;99.90
34985;DHT22;21190;58.750;17.004;2022-11-20T04:56:51;0.20;99.90
34985;DHT22;21190;58.750;17.004;2022-11-20T04:59:18;0.20;99.90
34985;DHT22;21190;58.750;17.004;2022-11-20T05:01:46;0.30;99.90
34985;DHT22;21190;58.750;17.004;2022-11-20T05:04:13;0.30;99.90
34985;DHT22;21190;58.750;17.004;2022-11-20T05:06:39;0.20;99.90
34985;DHT22;21190;58.750;17.004;2022-11-20T05:09:06;0.20;99.90
34985;DHT22;21190;58.750;17.004;2022-11-20T05:11:33;0.20;99.90
34985;DHT22;21190;58.750;17.004;2022-11-20T05:14:00;0.20;99.90
34985;DHT22;21190;58.750;17.004;2022-11-20T05:16:27;0.20;99.90
34985;DHT22;21190;58.750;17.004;2022-11-20T05:18:54;0.20;99.90
34985;DHT22;21190;58.750;17.004;2022-11-20T05:21:21;0.20;99.90
34985;DHT22;21190;58.750;17.004;2022-11-20T05:23:48;0.20;99.90
34985;DHT22;21190;58.750;17.004;2022-11-20T05:26:16;0.20;99.90
34985;DHT22;21190;58.750;17.004;2022-11-20T05:28:43;0.20;99.90
34985;DHT22;21190;58.750;17.004;2022-11-20T05:31:15;0.30;99.90
34985;DHT22;21190;58.750;17.004;2022-11-20T05:33:47;0.30;99.90
34985;DHT22;21190;58.750;17.004;2022-11-20T05:36:14;0.30;99.90
34985;DHT22;21190;58.750;17.004;2022-11-20T05:38:41;0.20;99.90
34985;DHT22;21190;58.750;17.004;2022-11-20T05:41:13;0.30;99.90
34985;DHT22;21190;58.750;17.004;2022-11-20T05:43:40;0.20;99.90
34985;DHT22;21190;58.750;17.004;2022-11-20T05:46:08;0.30;99.90
34985;DHT22;21190;58.750;17.004;2022-11-20T05:48:35;0.20;99.90
34985;DHT22;21190;58.750;17.004;2022-11-20T05:51:03;0.20;99.90
34985;DHT22;21190;58.750;17.004;2022-11-20T05:53:31;0.20;99.90
34985;DHT22;21190;58.750;17.004;2022-11-20T05:56:02;0.20;99.90
34985;DHT22;21190;58.750;17.004;2022-11-20T05:58:30;0.20;99.90
34985;DHT22;21190;58.750;17.004;2022-11-20T06:01:10;0.30;99.90
34985;DHT22;21190;58.750;17.004;2022-11-20T06:03:38;0.30;99.90
34985;DHT22;21190;58.750;17.004;2022-11-20T06:06:05;0.30;99.90
34985;DHT22;21190;58.750;17.004;2022-11-20T06:08:32;0.30;99.90
34985;DHT22;21190;58.750;17.004;2022-11-20T06:11:02;0.30;99.90
34985;DHT22;21190;58.750;17.004;2022-11-20T06:13:29;0.30;99.90
34985;DHT22;21190;58.750;17.004;2022-11-20T06:15:56;0.20;99.90
34985;DHT22;21190;58.750;17.004;2022-11-20T06:18:23;0.20;99.90
34985;DHT22;21190;58.750;17.004;2022-11-20T06:20:58;0.20;99.90
34985;DHT22;21190;58.750;17.004;2022-11-20T06:23:25;0.20;99.90
34985;DHT22;21190;58.750;17.004;2022-11-20T06:25:54;0.20;99.90
34985;DHT22;21190;58.750;17.004;2022-11-20T06:28:21;0.20;99.90
34985;DHT22;21190;58.750;17.004;2022-11-20T06:30:48;0.20;99.90
34985;DHT22;21190;58.750;17.004;2022-11-20T06:33:15;0.20;99.90
34985;DHT22;21190;58.750;17.004;2022-11-20T06:35:42;0.20;99.90
34985;DHT22;21190;58.750;17.004;2022-11-20T06:38:08;0.20;99.90
34985;DHT22;21190;58.750;17.004;2022-11-20T06:40:35;0.10;99.90
34985;DHT22;21190;58.750;17.004;2022-11-20T06:43:02;0.10;99.90
34985;DHT22;21190;58.750;17.004;2022-11-20T06:45:29;0.10;99.90
34985;DHT22;21190;58.750;17.004;2022-11-20T06:47:57;0.20;99.90
34985;DHT22;21190;58.750;17.004;2022-11-20T06:50:23;0.20;99.90
34985;DHT22;21190;58.750;17.004;2022-11-20T06:52:50;0.20;99.90
34985;DHT22;21190;58.750;17.004;2022-11-20T06:55:17;0.10;99.90
34985;DHT22;21190;58.750;17.004;2022-11-20T06:57:44;0.10;99.90
34985;DHT22;21190;58.750;17.004;2022-11-20T07:00:11;0.20;99.90
34985;DHT22;21190;58.750;17.004;2022-11-20T07:02:38;0.10;99.90
34985;DHT22;21190;58.750;17.004;2022-11-20T07:05:05;0.20;99.90
34985;DHT22;21190;58.750;17.004;2022-11-20T07:07:31;0.20;99.90
34985;DHT22;21190;58.750;17.004;2022-11-20T07:09:58;0.20;99.90
34985;DHT22;21190;58.750;17.004;2022-11-20T07:12:25;0.10;99.90
34985;DHT22;21190;58.750;17.004;2022-11-20T07:14:52;0.20;99.90
34985;DHT22;21190;58.750;17.004;2022-11-20T07:17:19;0.20;99.90
34985;DHT22;21190;58.750;17.004;2022-11-20T07:19:46;0.20;99.90
34985;DHT22;21190;58.750;17.004;2022-11-20T07:22:12;0.20;99.90
34985;DHT22;21190;58.750;17.004;2022-11-20T07:24:39;0.20;99.90
34985;DHT22;21190;58.750;17.004;2022-11-20T07:27:11;0.20;99.90
34985;DHT22;21190;58.750;17.004;2022-11-20T07:29:38;0.30;99.90
34985;DHT22;21190;58.750;17.004;2022-11-20T07:32:05;0.30;99.90
34985;DHT22;21190;58.750;17.004;2022-11-20T07:34:32;0.30;99.90
34985;DHT22;21190;58.750;17.004;2022-11-20T07:36:58;0.30;99.90
34985;DHT22;21190;58.750;17.004;2022-11-20T07:39:25;0.30;99.90
34985;DHT22;21190;58.750;17.004;2022-11-20T07:41:52;0.30;99.90
34985;DHT22;21190;58.750;17.004;2022-11-20T07:44:19;0.30;99.90
34985;DHT22;21190;58.750;17.004;2022-11-20T07:46:46;0.40;99.90
34985;DHT22;21190;58.750;17.004;2022-11-20T07:49:13;0.40;99.90
34985;DHT22;21190;58.750;17.004;2022-11-20T07:51:39;0.40;99.90
34985;DHT22;21190;58.750;17.004;2022-11-20T07:54:08;0.40;99.90
34985;DHT22;21190;58.750;17.004;2022-11-20T07:56:35;0.40;99.90
34985;DHT22;21190;58.750;17.004;2022-11-20T07:59:02;0.40;99.90
34985;DHT22;21190;58.750;17.004;2022-11-20T08:01:30;0.30;99.90
34985;DHT22;21190;58.750;17.004;2022-11-20T08:03:56;0.40;99.90
34985;DHT22;21190;58.750;17.004;2022-11-20T08:06:23;0.40;99.90
34985;DHT22;21190;58.750;17.004;2022-11-20T08:08:51;0.40;99.90
34985;DHT22;21190;58.750;17.004;2022-11-20T08:11:18;0.40;99.90
34985;DHT22;21190;58.750;17.004;2022-11-20T08:14:03;0.40;99.90
34985;DHT22;21190;58.750;17.004;2022-11-20T08:16:39;0.40;99.90
34985;DHT22;21190;58.750;17.004;2022-11-20T08:19:06;0.40;99.90
34985;DHT22;21190;58.750;17.004;2022-11-20T08:21:33;0.40;99.90
34985;DHT22;21190;58.750;17.004;2022-11-20T08:24:04;0.50;99.90
34985;DHT22;21190;58.750;17.004;2022-11-20T08:26:30;0.50;99.90
34985;DHT22;21190;58.750;17.004;2022-11-20T08:28:57;0.50;99.90
34985;DHT22;21190;58.750;17.004;2022-11-20T08:31:25;0.50;99.90
34985;DHT22;21190;58.750;17.004;2022-11-20T08:33:52;0.50;99.90
34985;DHT22;21190;58.750;17.004;2022-11-20T08:36:20;0.50;99.90
34985;DHT22;21190;58.750;17.004;2022-11-20T08:38:47;0.60;99.90
34985;DHT22;21190;58.750;17.004;2022-11-20T08:41:14;0.60;99.90
34985;DHT22;21190;58.750;17.004;2022-11-20T08:43:51;0.60;99.90
34985;DHT22;21190;58.750;17.004;2022-11-20T08:46:18;0.70;99.90
34985;DHT22;21190;58.750;17.004;2022-11-20T08:48:45;0.70;99.90
34985;DHT22;21190;58.750;17.004;2022-11-20T08:51:12;0.60;99.90
34985;DHT22;21190;58.750;17.004;2022-11-20T08:53:39;0.60;99.90
34985;DHT22;21190;58.750;17.004;2022-11-20T08:56:07;0.70;99.90
34985;DHT22;21190;58.750;17.004;2022-11-20T08:58:34;0.70;99.90
34985;DHT22;21190;58.750;17.004;2022-11-20T09:01:21;0.70;99.90
34985;DHT22;21190;58.750;17.004;2022-11-20T09:03:48;0.70;99.90
34985;DHT22;21190;58.750;17.004;2022-11-20T09:06:15;0.80;99.90
34985;DHT22;21190;58.750;17.004;2022-11-20T09:08:42;0.80;99.90
34985;DHT22;21190;58.750;17.004;2022-11-20T09:11:09;0.80;99.90
34985;DHT22;21190;58.750;17.004;2022-11-20T09:13:36;0.70;99.90
34985;DHT22;21190;58.750;17.004;2022-11-20T09:16:04;0.80;99.90
34985;DHT22;21190;58.750;17.004;2022-11-20T09:18:32;0.80;99.90
34985;DHT22;21190;58.750;17.004;2022-11-20T09:21:00;0.70;99.90
34985;DHT22;21190;58.750;17.004;2022-11-20T09:23:27;0.80;99.90
34985;DHT22;21190;58.750;17.004;2022-11-20T09:25:57;0.70;99.90
34985;DHT22;21190;58.750;17.004;2022-11-20T09:28:26;0.80;99.90
34985;DHT22;21190;58.750;17.004;2022-11-20T09:30:53;0.70;99.90
34985;DHT22;21190;58.750;17.004;2022-11-20T09:33:19;0.70;99.90
34985;DHT22;21190;58.750;17.004;2022-11-20T09:35:46;0.80;99.90
34985;DHT22;21190;58.750;17.004;2022-11-20T09:38:13;0.80;99.90
34985;DHT22;21190;58.750;17.004;2022-11-20T09:40:44;0.80;99.90
34985;DHT22;21190;58.750;17.004;2022-11-20T09:48:42;0.70;99.90
34985;DHT22;21190;58.750;17.004;2022-11-20T09:56:22;0.70;99.90
34985;DHT22;21190;58.750;17.004;2022-11-20T09:58:54;0.70;99.90
34985;DHT22;21190;58.750;17.004;2022-11-20T10:01:23;0.70;99.90
34985;DHT22;21190;58.750;17.004;2022-11-20T10:03:59;0.60;99.90
34985;DHT22;21190;58.750;17.004;2022-11-20T10:06:31;0.70;99.90
34985;DHT22;21190;58.750;17.004;2022-11-20T10:09:01;0.70;99.90
34985;DHT22;21190;58.750;17.004;2022-11-20T10:27:39;0.80;99.90
34985;DHT22;21190;58.750;17.004;2022-11-20T10:30:12;0.90;99.90
34985;DHT22;21190;58.750;17.004;2022-11-20T10:32:41;0.80;99.90
34985;DHT22;21190;58.750;17.004;2022-11-20T10:35:19;0.90;99.90
34985;DHT22;21190;58.750;17.004;2022-11-20T10:37:49;0.90;99.90
34985;DHT22;21190;58.750;17.004;2022-11-20T10:42:57;0.90;99.90
34985;DHT22;21190;58.750;17.004;2022-11-20T10:50:43;0.90;99.90
34985;DHT22;21190;58.750;17.004;2022-11-20T10:55:56;1.00;99.90
34985;DHT22;21190;58.750;17.004;2022-11-20T10:58:31;1.00;99.90
34985;DHT22;21190;58.750;17.004;2022-11-20T11:01:15;1.00;99.90
34985;DHT22;21190;58.750;17.004;2022-11-20T11:03:42;1.00;99.90
34985;DHT22;21190;58.750;17.004;2022-11-20T11:08:45;1.00;99.90
34985;DHT22;21190;58.750;17.004;2022-11-20T11:11:47;1.00;99.90
34985;DHT22;21190;58.750;17.004;2022-11-20T11:14:10;0.90;99.90
34985;DHT22;21190;58.750;17.004;2022-11-20T11:16:51;1.00;99.90
34985;DHT22;21190;58.750;17.004;2022-11-20T11:19:18;1.00;99.90
34985;DHT22;21190;58.750;17.004;2022-11-20T11:21:51;0.90;99.90
34985;DHT22;21190;58.750;17.004;2022-11-20T11:24:25;0.90;99.90
34985;DHT22;21190;58.750;17.004;2022-11-20T11:27:11;0.90;99.90
34985;DHT22;21190;58.750;17.004;2022-11-20T11:29:43;0.90;99.90
34985;DHT22;21190;58.750;17.004;2022-11-20T11:32:20;1.00;99.90
34985;DHT22;21190;58.750;17.004;2022-11-20T11:35:01;1.00;99.90
34985;DHT22;21190;58.750;17.004;2022-11-20T11:37:32;1.00;99.90
34985;DHT22;21190;58.750;17.004;2022-11-20T11:40:00;1.10;99.90
34985;DHT22;21190;58.750;17.004;2022-11-20T11:42:50;1.10;99.90
34985;DHT22;21190;58.750;17.004;2022-11-20T11:45:18;1.00;99.90
34985;DHT22;21190;58.750;17.004;2022-11-20T11:47:46;1.00;99.90
34985;DHT22;21190;58.750;17.004;2022-11-20T11:52:50;0.90;99.90
34985;DHT22;21190;58.750;17.004;2022-11-20T12:00:35;0.90;99.90
34985;DHT22;21190;58.750;17.004;2022-11-20T12:03:14;0.90;99.90
34985;DHT22;21190;58.750;17.004;2022-11-20T12:05:46;0.90;99.90
34985;DHT22;21190;58.750;17.004;2022-11-20T12:08:30;0.80;99.90
34985;DHT22;21190;58.750;17.004;2022-11-20T12:15:55;0.90;99.90
34985;DHT22;21190;58.750;17.004;2022-11-20T12:18:22;0.90;99.90
34985;DHT22;21190;58.750;17.004;2022-11-20T12:23:24;0.80;99.90
34985;DHT22;21190;58.750;17.004;2022-11-20T12:25:54;0.80;99.90
34985;DHT22;21190;58.750;17.004;2022-11-20T12:31:08;0.90;99.90
34985;DHT22;21190;58.750;17.004;2022-11-20T12:33:45;0.90;99.90
34985;DHT22;21190;58.750;17.004;2022-11-20T12:36:19;0.90;99.90
34985;DHT22;21190;58.750;17.004;2022-11-20T12:38:59;0.80;99.90
34985;DHT22;21190;58.750;17.004;2022-11-20T12:52:45;0.90;99.90
34985;DHT22;21190;58.750;17.004;2022-11-20T12:55:36;0.80;99.90
34985;DHT22;21190;58.750;17.004;2022-11-20T12:58:10;0.90;99.90
34985;DHT22;21190;58.750;17.004;2022-11-20T13:00:39;0.80;99.90
34985;DHT22;21190;58.750;17.004;2022-11-20T13:03:17;0.80;99.90
34985;DHT22;21190;58.750;17.004;2022-11-20T13:06:10;0.80;99.90
34985;DHT22;21190;58.750;17.004;2022-11-20T13:08:41;0.80;99.90
34985;DHT22;21190;58.750;17.004;2022-11-20T13:11:15;0.70;99.90
34985;DHT22;21190;58.750;17.004;2022-11-20T13:13:48;0.80;99.90
34985;DHT22;21190;58.750;17.004;2022-11-20T13:19:11;0.80;99.90
34985;DHT22;21190;58.750;17.004;2022-11-20T13:21:40;0.80;99.90
34985;DHT22;21190;58.750;17.004;2022-11-20T13:24:07;0.80;99.90
34985;DHT22;21190;58.750;17.004;2022-11-20T13:26:46;0.80;99.90
34985;DHT22;21190;58.750;17.004;2022-11-20T13:29:17;0.80;99.90
34985;DHT22;21190;58.750;17.004;2022-11-20T13:31:45;0.80;99.90
34985;DHT22;21190;58.750;17.004;2022-11-20T13:34:26;0.70;99.90
34985;DHT22;21190;58.750;17.004;2022-11-20T13:36:54;0.80;99.90
34985;DHT22;21190;58.750;17.004;2022-11-20T13:39:29;0.70;99.90
34985;DHT22;21190;58.750;17.004;2022-11-20T13:41:59;0.80;99.90
34985;DHT22;21190;58.750;17.004;2022-11-20T13:44:29;0.80;99.90
34985;DHT22;21190;58.750;17.004;2022-11-20T13:46:56;0.80;99.90
34985;DHT22;21190;58.750;17.004;2022-11-20T13:49:29;0.80;99.90
34985;DHT22;21190;58.750;17.004;2022-11-20T13:57:13;0.80;99.90
34985;DHT22;21190;58.750;17.004;2022-11-20T14:02:14;0.80;99.90
34985;DHT22;21190;58.750;17.004;2022-11-20T14:04:42;0.80;99.90
34985;DHT22;21190;58.750;17.004;2022-11-20T14:07:09;0.80;99.90
34985;DHT22;21190;58.750;17.004;2022-11-20T14:09:36;0.80;99.90
34985;DHT22;21190;58.750;17.004;2022-11-20T14:12:04;0.80;99.90
34985;DHT22;21190;58.750;17.004;2022-11-20T14:14:46;0.80;99.90
34985;DHT22;21190;58.750;17.004;2022-11-20T14:17:18;0.90;99.90
34985;DHT22;21190;58.750;17.004;2022-11-20T14:19:45;1.00;99.90
34985;DHT22;21190;58.750;17.004;2022-11-20T14:22:17;1.00;99.90
34985;DHT22;21190;58.750;17.004;2022-11-20T14:24:48;0.90;99.90
34985;DHT22;21190;58.750;17.004;2022-11-20T14:27:16;0.90;99.90
34985;DHT22;21190;58.750;17.004;2022-11-20T14:29:44;0.80;99.90
34985;DHT22;21190;58.750;17.004;2022-11-20T14:32:14;0.80;99.90
34985;DHT22;21190;58.750;17.004;2022-11-20T14:34:41;0.80;99.90
34985;DHT22;21190;58.750;17.004;2022-11-20T14:37:13;0.80;99.90
34985;DHT22;21190;58.750;17.004;2022-11-20T14:39:48;0.80;99.90
34985;DHT22;21190;58.750;17.004;2022-11-20T14:42:25;0.80;99.90
34985;DHT22;21190;58.750;17.004;2022-11-20T14:44:55;0.70;99.90
34985;DHT22;21190;58.750;17.004;2022-11-20T14:47:23;0.70;99.90
34985;DHT22;21190;58.750;17.004;2022-11-20T14:49:51;0.80;99.90
34985;DHT22;21190;58.750;17.004;2022-11-20T14:52:20;0.80;99.90
34985;DHT22;21190;58.750;17.004;2022-11-20T14:54:48;0.70;99.90
34985;DHT22;21190;58.750;17.004;2022-11-20T14:59:48;0.80;99.90
34985;DHT22;21190;58.750;17.004;2022-11-20T15:02:15;0.70;99.90
34985;DHT22;21190;58.750;17.004;2022-11-20T15:07:22;0.60;99.90
34985;DHT22;21190;58.750;17.004;2022-11-20T15:09:59;0.70;99.90
34985;DHT22;21190;58.750;17.004;2022-11-20T15:12:26;0.70;99.90
34985;DHT22;21190;58.750;17.004;2022-11-20T15:14:52;0.70;99.90
34985;DHT22;21190;58.750;17.004;2022-11-20T15:17:19;0.70;99.90
34985;DHT22;21190;58.750;17.004;2022-11-20T15:19:46;0.70;99.90
34985;DHT22;21190;58.750;17.004;2022-11-20T15:22:13;0.70;99.90
34985;DHT22;21190;58.750;17.004;2022-11-20T15:24:40;0.60;99.90
34985;DHT22;21190;58.750;17.004;2022-11-20T15:27:07;0.60;99.90
34985;DHT22;21190;58.750;17.004;2022-11-20T15:29:34;0.60;99.90
34985;DHT22;21190;58.750;17.004;2022-11-20T15:32:01;0.60;99.90
34985;DHT22;21190;58.750;17.004;2022-11-20T15:34:28;0.70;99.90
34985;DHT22;21190;58.750;17.004;2022-11-20T15:36:55;0.60;99.90
34985;DHT22;21190;58.750;17.004;2022-11-20T15:39:22;0.50;99.90
34985;DHT22;21190;58.750;17.004;2022-11-20T15:41:49;0.50;99.90
34985;DHT22;21190;58.750;17.004;2022-11-20T15:44:15;0.50;99.90
34985;DHT22;21190;58.750;17.004;2022-11-20T15:46:42;0.50;99.90
34985;DHT22;21190;58.750;17.004;2022-11-20T15:49:12;0.50;99.90
34985;DHT22;21190;58.750;17.004;2022-11-20T15:51:40;0.50;99.90
34985;DHT22;21190;58.750;17.004;2022-11-20T15:54:12;0.50;99.90
34985;DHT22;21190;58.750;17.004;2022-11-20T15:56:39;0.40;99.90
34985;DHT22;21190;58.750;17.004;2022-11-20T15:59:06;0.40;99.90
34985;DHT22;21190;58.750;17.004;2022-11-20T16:01:33;0.40;99.90
34985;DHT22;21190;58.750;17.004;2022-11-20T16:04:00;0.40;99.90
34985;DHT22;21190;58.750;17.004;2022-11-20T16:06:27;0.50;99.90
34985;DHT22;21190;58.750;17.004;2022-11-20T16:08:54;0.40;99.90
34985;DHT22;21190;58.750;17.004;2022-11-20T16:11:21;0.40;99.90
34985;DHT22;21190;58.750;17.004;2022-11-20T16:13:48;0.40;99.90
34985;DHT22;21190;58.750;17.004;2022-11-20T16:16:34;0.40;99.90
34985;DHT22;21190;58.750;17.004;2022-11-20T16:19:01;0.30;99.90
34985;DHT22;21190;58.750;17.004;2022-11-20T16:21:28;0.40;99.90
34985;DHT22;21190;58.750;17.004;2022-11-20T16:23:59;0.40;99.90
34985;DHT22;21190;58.750;17.004;2022-11-20T16:26:26;0.40;99.90
34985;DHT22;21190;58.750;17.004;2022-11-20T16:28:53;0.40;99.90
34985;DHT22;21190;58.750;17.004;2022-11-20T16:31:21;0.30;99.90
34985;DHT22;21190;58.750;17.004;2022-11-20T16:33:48;0.30;99.90
34985;DHT22;21190;58.750;17.004;2022-11-20T16:36:16;0.40;99.90
34985;DHT22;21190;58.750;17.004;2022-11-20T16:38:43;0.40;99.90
34985;DHT22;21190;58.750;17.004;2022-11-20T16:41:09;0.40;99.90
34985;DHT22;21190;58.750;17.004;2022-11-20T16:43:46;0.40;99.90
34985;DHT22;21190;58.750;17.004;2022-11-20T16:46:13;0.40;99.90
34985;DHT22;21190;58.750;17.004;2022-11-20T16:48:40;0.40;99.90
34985;DHT22;21190;58.750;17.004;2022-11-20T16:51:08;0.40;99.90
34985;DHT22;21190;58.750;17.004;2022-11-20T16:53:36;0.30;99.90
34985;DHT22;21190;58.750;17.004;2022-11-20T16:56:12;0.30;99.90
34985;DHT22;21190;58.750;17.004;2022-11-20T16:58:44;0.30;99.90
34985;DHT22;21190;58.750;17.004;2022-11-20T17:01:12;0.30;99.90
34985;DHT22;21190;58.750;17.004;2022-11-20T17:03:40;0.30;99.90
34985;DHT22;21190;58.750;17.004;2022-11-20T17:06:11;0.40;99.90
34985;DHT22;21190;58.750;17.004;2022-11-20T17:08:38;0.40;99.90
34985;DHT22;21190;58.750;17.004;2022-11-20T17:11:05;0.30;99.90
34985;DHT22;21190;58.750;17.004;2022-11-20T17:13:33;0.30;99.90